Time;durP1;ratioP1;P1;durP2;ratioP2;P2;SDS_P1;SDS_P2;PMS_P1;PMS_P2;Temp;Humidity;BMP_temperature;BMP_pressure;BME280_temperature;BME280_humidity;BME280_pressure;Samples;Min_cycle;Max_cycle;Signal;HPM_P1;HPM_P2
2023/07/18 00:01:38;;;;;;;5.03;0.80;;;18.00;59.70;;;;;;5043267;28;20564;-79
2023/07/18 00:04:05;;;;;;;4.68;1.75;;;18.00;59.70;;;;;;5049419;28;20131;-81
2023/07/18 00:06:32;;;;;;;2.95;1.10;;;18.00;59.90;;;;;;5030304;28;20567;-80
2023/07/18 00:08:58;;;;;;;3.85;1.45;;;17.90;59.80;;;;;;5052303;28;20086;-79
2023/07/18 00:11:24;;;;;;;2.63;1.00;;;17.90;59.90;;;;;;5044185;28;20561;-79
2023/07/18 00:13:50;;;;;;;2.90;0.93;;;17.90;60.00;;;;;;5040173;28;20028;-79
2023/07/18 00:16:16;;;;;;;10.07;2.47;;;17.90;60.20;;;;;;5043419;28;20485;-78
2023/07/18 00:18:43;;;;;;;7.13;2.13;;;17.90;60.20;;;;;;5022821;28;20090;-78
2023/07/18 00:21:12;;;;;;;2.80;1.20;;;17.80;60.20;;;;;;5058323;28;20048;-78
2023/07/18 00:23:39;;;;;;;3.47;1.10;;;17.80;60.20;;;;;;5034932;28;20033;-79
2023/07/18 00:26:05;;;;;;;6.45;1.42;;;17.80;60.90;;;;;;5042248;28;20037;-78
2023/07/18 00:28:40;;;;;;;3.00;1.45;;;17.70;60.30;;;;;;5026403;28;20396;-79
2023/07/18 00:31:06;;;;;;;2.90;1.05;;;17.70;60.30;;;;;;5045858;28;20036;-79
2023/07/18 00:33:33;;;;;;;2.92;1.40;;;17.70;60.50;;;;;;5044637;28;20500;-79
2023/07/18 00:36:03;;;;;;;3.15;1.00;;;17.60;60.40;;;;;;5041397;28;20037;-77
2023/07/18 00:38:29;;;;;;;4.95;1.38;;;17.60;60.50;;;;;;5027999;28;20087;-78
2023/07/18 00:40:57;;;;;;;5.10;1.60;;;17.60;60.60;;;;;;5046559;28;20395;-79
2023/07/18 00:43:24;;;;;;;6.60;1.10;;;17.50;60.60;;;;;;5036930;28;20028;-79
2023/07/18 00:45:50;;;;;;;3.50;1.30;;;17.50;60.70;;;;;;5050337;28;20823;-80
2023/07/18 00:48:17;;;;;;;5.70;1.30;;;17.50;60.80;;;;;;5039268;28;20049;-79
2023/07/18 00:50:43;;;;;;;5.25;1.15;;;17.50;60.90;;;;;;5041838;28;20118;-78
2023/07/18 00:53:10;;;;;;;4.72;0.95;;;17.40;60.90;;;;;;5040694;28;20037;-78
2023/07/18 00:55:37;;;;;;;3.15;0.90;;;17.40;60.90;;;;;;5041328;28;20044;-78
2023/07/18 00:58:10;;;;;;;5.35;1.17;;;17.40;61.00;;;;;;5031626;28;20036;-78
2023/07/18 01:00:36;;;;;;;4.00;1.15;;;17.30;60.90;;;;;;5038870;28;20482;-78
2023/07/18 01:03:02;;;;;;;6.22;1.33;;;17.30;61.10;;;;;;5038195;28;20424;-79
2023/07/18 01:05:30;;;;;;;3.67;1.25;;;17.30;61.20;;;;;;5056516;28;20727;-79
2023/07/18 01:07:56;;;;;;;3.45;0.90;;;17.20;61.10;;;;;;5057983;28;20468;-78
2023/07/18 01:10:25;;;;;;;4.85;1.15;;;17.20;61.20;;;;;;5059729;28;20050;-78
2023/07/18 01:12:52;;;;;;;5.18;1.00;;;17.20;61.40;;;;;;5025662;28;20102;-78
2023/07/18 01:15:26;;;;;;;5.05;1.58;;;17.10;61.30;;;;;;5023321;28;20068;-79
2023/07/18 01:17:52;;;;;;;4.45;1.27;;;17.10;61.40;;;;;;5059573;28;20389;-78
2023/07/18 01:20:20;;;;;;;4.25;1.20;;;17.10;61.50;;;;;;5043961;28;20483;-78
2023/07/18 01:22:51;;;;;;;4.35;1.10;;;17.10;61.60;;;;;;5054262;28;20032;-79
2023/07/18 01:25:23;;;;;;;3.28;1.20;;;17.10;61.80;;;;;;5045182;28;20037;-78
2023/07/18 01:27:52;;;;;;;4.43;1.20;;;17.10;61.80;;;;;;5061392;28;20032;-78
2023/07/18 01:30:20;;;;;;;4.65;1.48;;;17.10;61.90;;;;;;5041265;28;20071;-78
2023/07/18 01:32:49;;;;;;;3.72;1.35;;;17.00;61.80;;;;;;5055842;28;20566;-78
2023/07/18 01:35:19;;;;;;;3.03;1.00;;;17.00;61.80;;;;;;5051723;28;20384;-77
2023/07/18 01:37:46;;;;;;;4.72;1.38;;;17.00;61.90;;;;;;5036564;28;20036;-78
2023/07/18 01:40:20;;;;;;;3.70;1.13;;;17.00;62.00;;;;;;5043609;28;20517;-77
2023/07/18 01:42:51;;;;;;;4.03;1.10;;;16.90;61.90;;;;;;5039867;28;20025;-77
2023/07/18 01:45:19;;;;;;;4.18;1.00;;;16.90;62.00;;;;;;5044733;28;20107;-78
2023/07/18 01:47:49;;;;;;;7.88;1.45;;;16.90;62.10;;;;;;5040635;28;20047;-78
2023/07/18 01:50:16;;;;;;;4.10;0.90;;;16.90;62.20;;;;;;5029566;28;20032;-77
2023/07/18 01:52:42;;;;;;;3.08;1.02;;;16.90;62.30;;;;;;5045158;28;20037;-77
2023/07/18 01:55:09;;;;;;;4.30;1.83;;;16.80;62.20;;;;;;5023422;28;20133;-77
2023/07/18 01:57:36;;;;;;;4.75;1.13;;;16.80;62.30;;;;;;5053779;28;20111;-77
2023/07/18 02:00:11;;;;;;;3.65;1.67;;;16.80;62.40;;;;;;5034042;28;20068;-79
2023/07/18 02:02:48;;;;;;;5.85;1.55;;;16.80;62.50;;;;;;5043586;28;20064;-79
2023/07/18 02:05:20;;;;;;;5.68;1.50;;;16.80;62.60;;;;;;5034092;28;20788;-79
2023/07/18 02:07:48;;;;;;;3.53;0.90;;;16.70;62.60;;;;;;5053318;28;20052;-79
2023/07/18 02:10:15;;;;;;;6.18;1.10;;;16.70;62.60;;;;;;5030933;28;20646;-79
2023/07/18 02:12:42;;;;;;;2.78;1.50;;;16.70;62.70;;;;;;5043573;28;20271;-79
2023/07/18 02:15:09;;;;;;;4.18;0.85;;;16.70;62.80;;;;;;5032375;28;20033;-79
2023/07/18 02:17:36;;;;;;;5.15;1.33;;;16.60;62.70;;;;;;5040027;28;20230;-79
2023/07/18 02:20:06;;;;;;;8.43;2.42;;;16.60;62.80;;;;;;5038018;28;20067;-79
2023/07/18 02:22:34;;;;;;;4.57;0.98;;;16.60;62.90;;;;;;5045387;28;20117;-79
2023/07/18 02:25:02;;;;;;;4.47;1.00;;;16.60;62.90;;;;;;5051865;28;20494;-78
2023/07/18 02:27:37;;;;;;;2.25;0.93;;;16.60;63.00;;;;;;5054852;28;20040;-79
2023/07/18 02:30:08;;;;;;;2.95;1.10;;;16.60;63.10;;;;;;5065543;28;20128;-78
2023/07/18 02:32:35;;;;;;;4.88;1.20;;;16.60;63.20;;;;;;5062594;28;20052;-77
2023/07/18 02:35:01;;;;;;;3.30;1.30;;;16.50;63.10;;;;;;5034174;28;20040;-78
2023/07/18 02:37:28;;;;;;;2.88;1.50;;;16.50;63.20;;;;;;5049254;28;20329;-79
2023/07/18 02:39:54;;;;;;;7.22;2.45;;;16.50;63.20;;;;;;5048880;28;20555;-78
2023/07/18 02:42:21;;;;;;;6.18;1.20;;;16.50;63.30;;;;;;5049779;28;20128;-78
2023/07/18 02:44:48;;;;;;;4.30;1.15;;;16.50;63.40;;;;;;5059654;28;20105;-79
2023/07/18 02:47:15;;;;;;;5.28;1.33;;;16.50;63.50;;;;;;5027197;28;20447;-79
2023/07/18 02:49:42;;;;;;;2.58;0.90;;;16.40;63.40;;;;;;5061756;28;20512;-78
2023/07/18 02:52:08;;;;;;;6.13;1.92;;;16.40;63.50;;;;;;5056169;28;20060;-79
2023/07/18 02:54:35;;;;;;;4.10;1.40;;;16.40;63.60;;;;;;5029871;28;20048;-79
2023/07/18 02:57:02;;;;;;;3.13;0.98;;;16.40;63.70;;;;;;5044823;28;20027;-78
2023/07/18 02:59:29;;;;;;;2.42;1.38;;;16.40;63.80;;;;;;5034817;28;20037;-78
2023/07/18 03:01:58;;;;;;;2.90;1.02;;;16.40;63.90;;;;;;5047093;28;20095;-77
2023/07/18 03:04:26;;;;;;;3.58;1.25;;;16.40;64.00;;;;;;5039944;28;20056;-78
2023/07/18 03:06:53;;;;;;;4.10;1.00;;;16.40;64.00;;;;;;5053171;28;20294;-79
2023/07/18 03:09:21;;;;;;;5.35;1.90;;;16.40;64.10;;;;;;5045284;28;20398;-79
2023/07/18 03:11:51;;;;;;;2.35;1.10;;;16.40;64.10;;;;;;5044721;28;20828;-79
2023/07/18 03:14:18;;;;;;;3.03;1.02;;;16.40;64.20;;;;;;5035798;28;20032;-78
2023/07/18 03:16:48;;;;;;;6.53;1.13;;;16.40;64.20;;;;;;5036408;28;20025;-79
2023/07/18 03:19:15;;;;;;;3.13;0.73;;;16.40;64.30;;;;;;5035520;28;20420;-78
2023/07/18 03:21:43;;;;;;;3.22;1.33;;;16.40;64.40;;;;;;5042489;28;20040;-78
2023/07/18 03:24:10;;;;;;;2.85;1.00;;;16.40;64.40;;;;;;5046254;28;20557;-78
2023/07/18 03:26:37;;;;;;;2.20;0.90;;;16.30;64.30;;;;;;5040052;28;20025;-78
2023/07/18 03:29:07;;;;;;;3.22;0.80;;;16.30;64.30;;;;;;5047463;28;20028;-78
2023/07/18 03:31:34;;;;;;;2.97;0.95;;;16.30;64.40;;;;;;5030604;28;20032;-78
2023/07/18 03:34:05;;;;;;;4.18;1.10;;;16.30;64.50;;;;;;5029070;28;20661;-77
2023/07/18 03:36:33;;;;;;;4.38;1.15;;;16.30;64.60;;;;;;5038065;28;20406;-78
2023/07/18 03:38:59;;;;;;;2.58;0.90;;;16.30;64.60;;;;;;5043202;28;20420;-78
2023/07/18 03:41:26;;;;;;;3.13;1.13;;;16.30;64.70;;;;;;5041634;28;20041;-78
2023/07/18 03:43:52;;;;;;;4.05;1.35;;;16.30;64.80;;;;;;5037191;28;20086;-78
2023/07/18 03:46:21;;;;;;;3.92;1.40;;;16.30;64.90;;;;;;5033618;28;20044;-78
2023/07/18 03:49:08;;;;;;;4.05;1.42;;;16.30;64.90;;;;;;4951449;28;20226;-78
2023/07/18 03:51:34;;;;;;;2.65;0.80;;;16.30;64.90;;;;;;5028448;28;20440;-78
2023/07/18 03:54:02;;;;;;;4.95;1.40;;;16.30;65.00;;;;;;5042930;28;20028;-78
2023/07/18 03:56:30;;;;;;;4.90;1.30;;;16.20;64.90;;;;;;5046589;28;20029;-78
2023/07/18 03:58:56;;;;;;;5.18;1.25;;;16.30;65.10;;;;;;5041880;28;20032;-78
2023/07/18 04:01:22;;;;;;;6.05;1.10;;;16.30;65.20;;;;;;5034686;28;20032;-79
2023/07/18 04:03:50;;;;;;;3.35;0.98;;;16.30;65.20;;;;;;5044160;28;20182;-79
2023/07/18 04:06:16;;;;;;;5.95;1.25;;;16.30;65.30;;;;;;5027057;28;20031;-80
2023/07/18 04:08:43;;;;;;;3.13;1.10;;;16.30;65.30;;;;;;5031069;28;20048;-81
2023/07/18 04:11:09;;;;;;;21.27;1.67;;;16.30;65.40;;;;;;5035311;28;20029;-79
2023/07/18 04:13:35;;;;;;;3.35;1.13;;;16.30;65.50;;;;;;5041435;28;20435;-78
2023/07/18 04:16:01;;;;;;;7.53;1.00;;;16.30;65.50;;;;;;5042950;28;20083;-79
2023/07/18 04:18:28;;;;;;;4.22;1.33;;;16.20;65.40;;;;;;5050735;28;20040;-79
2023/07/18 04:21:04;;;;;;;2.70;1.05;;;16.20;65.40;;;;;;5023677;28;20110;-79
2023/07/18 04:23:30;;;;;;;4.22;1.17;;;16.30;65.70;;;;;;5042203;28;20512;-79
2023/07/18 04:25:57;;;;;;;5.72;1.42;;;16.20;65.50;;;;;;5046621;28;20033;-79
2023/07/18 04:28:26;;;;;;;4.15;0.90;;;16.20;65.50;;;;;;5037322;28;20028;-78
2023/07/18 04:30:52;;;;;;;2.97;1.08;;;16.20;65.60;;;;;;5055649;28;20554;-78
2023/07/18 04:33:18;;;;;;;1.20;0.85;;;16.20;65.70;;;;;;5056785;28;20040;-78
2023/07/18 04:35:45;;;;;;;2.38;0.90;;;16.20;65.80;;;;;;5030334;28;20036;-78
2023/07/18 04:38:12;;;;;;;4.18;1.02;;;16.20;65.80;;;;;;5047282;28;20044;-79
2023/07/18 04:40:38;;;;;;;4.93;1.20;;;16.20;65.90;;;;;;5046381;28;20043;-81
2023/07/18 04:43:04;;;;;;;5.47;1.02;;;16.20;65.90;;;;;;5040998;28;20029;-80
2023/07/18 04:45:31;;;;;;;3.42;1.23;;;16.20;66.00;;;;;;5049919;28;20033;-78
2023/07/18 04:47:57;;;;;;;5.40;1.23;;;16.20;66.10;;;;;;5049700;28;20464;-80
2023/07/18 04:50:23;;;;;;;2.55;1.17;;;16.20;66.10;;;;;;5034289;28;20025;-78
2023/07/18 04:52:51;;;;;;;3.80;1.45;;;16.20;66.70;;;;;;5029908;28;20024;-79
2023/07/18 04:55:18;;;;;;;4.97;1.10;;;16.20;66.20;;;;;;5047627;28;20036;-79
2023/07/18 04:57:44;;;;;;;3.20;1.40;;;16.20;66.20;;;;;;5036753;28;20502;-79
2023/07/18 05:00:11;;;;;;;4.95;1.00;;;16.20;66.30;;;;;;5043457;28;20059;-78
2023/07/18 05:02:38;;;;;;;4.18;0.90;;;16.20;66.30;;;;;;5058184;28;20543;-78
2023/07/18 05:05:04;;;;;;;2.65;1.00;;;16.30;66.50;;;;;;5041158;28;20375;-78
2023/07/18 05:07:30;;;;;;;2.42;1.10;;;16.30;66.50;;;;;;5056849;28;20097;-79
2023/07/18 05:09:56;;;;;;;3.80;1.58;;;16.30;66.50;;;;;;5036868;28;20040;-78
2023/07/18 05:12:22;;;;;;;1.95;0.80;;;16.30;66.60;;;;;;5046405;28;20070;-80
2023/07/18 05:14:48;;;;;;;5.65;1.60;;;16.30;66.60;;;;;;5041105;28;20115;-81
2023/07/18 05:17:14;;;;;;;4.40;1.20;;;16.30;66.50;;;;;;5050628;28;20411;-80
2023/07/18 05:19:40;;;;;;;2.15;0.82;;;16.40;66.70;;;;;;5058213;28;20032;-78
2023/07/18 05:22:06;;;;;;;2.17;1.00;;;16.40;66.70;;;;;;5051750;28;20085;-81
2023/07/18 05:24:32;;;;;;;4.97;1.10;;;16.40;66.80;;;;;;5057160;28;20507;-81
2023/07/18 05:26:58;;;;;;;3.97;1.50;;;16.50;67.30;;;;;;5052902;28;20155;-82
2023/07/18 05:29:25;;;;;;;4.82;1.30;;;16.50;67.40;;;;;;5047522;28;20600;-81
2023/07/18 05:31:51;;;;;;;6.57;1.50;;;16.60;67.70;;;;;;5040822;28;20392;-82
2023/07/18 05:34:17;;;;;;;3.20;0.80;;;16.60;67.70;;;;;;5039815;28;20032;-81
2023/07/18 05:36:43;;;;;;;4.05;1.55;;;16.60;67.60;;;;;;5040859;28;20613;-87
2023/07/18 05:39:09;;;;;;;3.67;0.90;;;16.70;67.80;;;;;;5024929;28;20435;-79
2023/07/18 05:41:35;;;;;;;3.20;1.17;;;16.70;67.80;;;;;;5049935;28;20547;-78
2023/07/18 05:44:01;;;;;;;4.22;1.30;;;16.70;67.80;;;;;;5047752;28;20036;-81
2023/07/18 05:46:27;;;;;;;3.28;1.15;;;16.70;67.80;;;;;;5051537;28;20037;-84
2023/07/18 05:48:54;;;;;;;2.35;0.90;;;16.70;67.80;;;;;;5040395;28;20042;-84
2023/07/18 05:51:20;;;;;;;3.30;1.20;;;16.80;68.00;;;;;;5040710;28;20037;-80
2023/07/18 05:53:46;;;;;;;3.05;0.82;;;16.80;68.10;;;;;;5054873;28;20032;-82
2023/07/18 05:56:12;;;;;;;3.42;1.48;;;16.80;68.30;;;;;;5049561;28;20118;-83
2023/07/18 05:58:37;;;;;;;2.92;1.30;;;16.90;68.50;;;;;;5025714;28;20037;-83
2023/07/18 06:01:13;;;;;;;3.80;1.45;;;17.00;68.60;;;;;;5034022;28;20952;-81
2023/07/18 06:03:40;;;;;;;5.85;1.20;;;17.00;68.60;;;;;;5051356;28;20377;-80
2023/07/18 06:06:07;;;;;;;4.40;1.30;;;17.10;68.70;;;;;;5045515;28;20401;-81
2023/07/18 06:08:33;;;;;;;2.85;0.80;;;17.10;68.70;;;;;;5050312;28;20455;-82
2023/07/18 06:10:59;;;;;;;3.78;1.00;;;17.20;68.90;;;;;;5024895;28;20033;-82
2023/07/18 06:13:25;;;;;;;3.85;0.90;;;17.20;68.90;;;;;;5031099;28;20543;-80
2023/07/18 06:15:51;;;;;;;2.40;1.58;;;17.30;69.00;;;;;;5047045;28;20028;-81
2023/07/18 06:18:17;;;;;;;2.53;0.93;;;17.30;68.90;;;;;;5040035;28;20388;-83
2023/07/18 06:20:43;;;;;;;3.85;1.15;;;17.40;69.00;;;;;;5027910;28;20037;-81
2023/07/18 06:23:10;;;;;;;2.88;1.15;;;17.50;69.10;;;;;;5040524;28;20553;-80
2023/07/18 06:25:39;;;;;;;4.38;0.90;;;17.60;69.20;;;;;;5037545;28;20124;-82
2023/07/18 06:28:05;;;;;;;3.85;1.38;;;17.70;69.20;;;;;;5026028;28;20043;-80
2023/07/18 06:30:31;;;;;;;2.92;1.15;;;17.80;69.20;;;;;;5034973;28;20037;-81
2023/07/18 06:32:59;;;;;;;2.75;1.30;;;17.90;69.10;;;;;;5041348;28;20136;-84
2023/07/18 06:35:26;;;;;;;4.05;1.13;;;18.00;69.10;;;;;;5030844;28;20175;-82
2023/07/18 06:37:55;;;;;;;2.95;1.20;;;18.10;69.10;;;;;;5047461;28;20040;-82
2023/07/18 06:40:21;;;;;;;4.70;1.38;;;18.20;69.20;;;;;;5042078;28;20052;-81
2023/07/18 06:42:53;;;;;;;5.18;2.25;;;18.20;69.00;;;;;;5043952;28;20244;-82
2023/07/18 06:45:32;;;;;;;5.07;1.15;;;18.30;69.10;;;;;;5019874;28;20163;-82
2023/07/18 06:48:07;;;;;;;2.78;0.98;;;18.40;69.10;;;;;;5033274;28;20041;-82
2023/07/18 06:50:38;;;;;;;2.97;1.08;;;18.50;69.00;;;;;;5053876;28;20071;-83
2023/07/18 06:53:04;;;;;;;1.90;0.95;;;18.60;68.90;;;;;;5041738;28;20476;-81
2023/07/18 06:55:31;;;;;;;4.10;1.25;;;18.70;68.90;;;;;;5051019;28;20036;-83
2023/07/18 06:57:59;;;;;;;5.63;1.52;;;18.80;68.80;;;;;;5012310;28;20782;-84
2023/07/18 07:00:26;;;;;;;3.88;1.13;;;18.90;68.70;;;;;;5055248;28;20040;-83
2023/07/18 07:02:56;;;;;;;4.28;1.75;;;19.00;68.60;;;;;;5052246;28;20055;-82
2023/07/18 07:05:28;;;;;;;1.90;1.00;;;19.00;68.40;;;;;;5048714;28;20044;-83
2023/07/18 07:07:55;;;;;;;3.88;1.30;;;19.10;68.40;;;;;;5020214;28;20054;-82
2023/07/18 07:10:21;;;;;;;3.50;1.23;;;19.20;68.30;;;;;;5054587;28;20090;-81
2023/07/18 07:12:54;;;;;;;3.47;1.20;;;19.20;68.20;;;;;;5039836;28;20036;-82
2023/07/18 07:15:22;;;;;;;5.28;1.55;;;19.30;68.10;;;;;;5021933;28;20497;-80
2023/07/18 07:17:48;;;;;;;5.75;1.25;;;19.40;68.00;;;;;;5051070;28;20167;-82
2023/07/18 07:20:24;;;;;;;4.40;1.40;;;19.50;68.00;;;;;;5049068;28;20036;-81
2023/07/18 07:22:53;;;;;;;5.63;1.02;;;19.60;67.90;;;;;;5033265;28;20092;-81
2023/07/18 07:25:26;;;;;;;5.20;1.02;;;19.70;67.90;;;;;;5047925;28;20093;-82
2023/07/18 07:27:53;;;;;;;3.20;0.95;;;19.80;67.70;;;;;;5040276;28;20099;-82
2023/07/18 07:30:20;;;;;;;4.88;1.05;;;19.90;67.60;;;;;;5036602;28;20032;-81
2023/07/18 07:32:51;;;;;;;4.00;1.48;;;20.00;67.50;;;;;;5039650;28;20577;-81
2023/07/18 07:35:27;;;;;;;2.25;1.08;;;20.10;67.40;;;;;;5108889;27;20353;-76
2023/07/18 07:37:54;;;;;;;2.88;0.90;;;20.10;67.10;;;;;;5076771;28;20119;-72
2023/07/18 07:40:21;;;;;;;4.53;1.25;;;20.20;67.10;;;;;;5098812;28;20559;-76
2023/07/18 07:42:50;;;;;;;5.35;1.55;;;20.30;67.00;;;;;;5097968;28;20322;-71
2023/07/18 07:45:17;;;;;;;2.97;0.90;;;20.40;66.70;;;;;;5096162;28;20020;-70
2023/07/18 07:47:44;;;;;;;4.13;1.30;;;20.50;66.50;;;;;;5080903;28;20592;-70
2023/07/18 07:50:12;;;;;;;1.40;1.00;;;20.70;66.50;;;;;;5098855;28;20028;-70
2023/07/18 07:52:38;;;;;;;4.28;1.45;;;20.80;66.20;;;;;;5095706;28;20039;-70
2023/07/18 07:55:05;;;;;;;3.60;1.30;;;21.00;66.10;;;;;;5102157;28;20043;-73
2023/07/18 07:57:32;;;;;;;3.75;1.60;;;21.20;65.90;;;;;;5092683;28;20028;-72
2023/07/18 08:00:02;;;;;;;2.83;1.40;;;21.40;65.50;;;;;;5093849;28;20521;-72
2023/07/18 08:02:34;;;;;;;3.05;1.25;;;21.70;65.50;;;;;;5100238;28;20092;-71
2023/07/18 08:05:03;;;;;;;3.17;1.25;;;21.90;65.20;;;;;;5091826;28;20039;-71
2023/07/18 08:07:29;;;;;;;3.53;1.52;;;22.10;65.00;;;;;;5092736;27;20108;-72
2023/07/18 08:09:55;;;;;;;2.97;1.00;;;22.20;64.70;;;;;;5101044;28;20529;-69
2023/07/18 08:12:22;;;;;;;4.10;1.60;;;22.40;64.60;;;;;;5102580;28;20035;-70
2023/07/18 08:14:55;;;;;;;3.22;1.30;;;22.40;64.10;;;;;;5079290;28;20113;-68
2023/07/18 08:17:41;;;;;;;3.33;1.40;;;22.50;63.90;;;;;;4988277;28;20072;-69
2023/07/18 08:20:10;;;;;;;2.65;1.05;;;22.60;63.80;;;;;;5078350;28;20150;-70
2023/07/18 08:22:36;;;;;;;4.10;1.00;;;22.60;64.20;;;;;;5106226;28;20035;-70
2023/07/18 08:25:05;;;;;;;7.60;1.88;;;22.80;63.70;;;;;;5101838;28;20038;-70
2023/07/18 08:27:32;;;;;;;3.08;1.17;;;22.90;63.40;;;;;;5097940;28;20491;-70
2023/07/18 08:30:05;;;;;;;3.75;0.70;;;23.00;63.20;;;;;;5098666;28;20027;-70
2023/07/18 08:32:34;;;;;;;2.88;0.90;;;23.10;63.00;;;;;;5095417;28;20396;-68
2023/07/18 08:35:00;;;;;;;3.83;0.98;;;23.20;62.70;;;;;;5091376;28;20040;-69
2023/07/18 08:37:26;;;;;;;1.80;0.80;;;23.30;62.50;;;;;;5099652;28;20042;-73
2023/07/18 08:39:58;;;;;;;3.88;1.92;;;23.30;62.30;;;;;;5095842;28;20031;-69
2023/07/18 08:42:27;;;;;;;1.50;1.00;;;23.30;62.10;;;;;;5089273;28;20036;-72
2023/07/18 08:44:54;;;;;;;2.25;0.80;;;23.30;61.80;;;;;;5090985;27;20507;-70
2023/07/18 08:47:41;;;;;;;4.53;1.17;;;23.30;61.70;;;;;;5075147;28;20043;-68
2023/07/18 08:50:10;;;;;;;1.77;0.80;;;23.30;61.60;;;;;;5078721;28;20019;-72
2023/07/18 08:52:36;;;;;;;2.92;0.90;;;23.30;61.60;;;;;;5081635;28;20396;-69
2023/07/18 08:55:06;;;;;;;2.22;0.93;;;23.30;61.50;;;;;;5092546;28;20572;-70
2023/07/18 08:57:35;;;;;;;2.67;1.00;;;23.40;61.40;;;;;;5081711;28;20067;-71
2023/07/18 09:00:04;;;;;;;2.33;1.02;;;23.40;61.20;;;;;;5091759;28;20656;-73
2023/07/18 09:02:33;;;;;;;5.68;1.10;;;23.50;61.20;;;;;;5081383;28;20097;-71
2023/07/18 09:04:59;;;;;;;2.95;1.00;;;23.60;61.10;;;;;;5086319;28;20071;-72
2023/07/18 09:07:27;;;;;;;1.42;0.52;;;23.70;60.90;;;;;;5092122;28;20098;-71
2023/07/18 09:09:57;;;;;;;2.33;1.00;;;23.80;60.70;;;;;;5081437;28;20113;-71
2023/07/18 09:12:24;;;;;;;2.88;0.98;;;23.90;60.40;;;;;;5074992;28;20127;-70
2023/07/18 09:14:56;;;;;;;2.35;0.73;;;24.10;60.20;;;;;;5090530;28;20024;-73
2023/07/18 09:17:27;;;;;;;2.15;0.70;;;24.30;60.10;;;;;;5089824;28;20066;-76
2023/07/18 09:19:54;;;;;;;1.58;0.55;;;24.50;60.00;;;;;;5081514;28;20040;-72
2023/07/18 09:22:20;;;;;;;1.58;0.68;;;24.70;59.60;;;;;;5094069;28;20081;-73
2023/07/18 09:24:47;;;;;;;3.33;0.85;;;24.90;59.50;;;;;;5087880;28;20081;-73
2023/07/18 09:27:20;;;;;;;1.05;0.60;;;25.10;59.10;;;;;;5085359;28;20042;-72
2023/07/18 09:29:48;;;;;;;4.22;1.40;;;25.50;58.40;;;;;;5089989;28;20062;-71
2023/07/18 09:32:23;;;;;;;3.20;0.68;;;25.70;57.80;;;;;;5086556;28;20042;-72
2023/07/18 09:34:58;;;;;;;3.90;1.23;;;25.90;57.20;;;;;;5088176;28;20052;-71
2023/07/18 09:37:25;;;;;;;3.20;1.02;;;26.00;57.40;;;;;;5089646;28;20046;-71
2023/07/18 09:39:51;;;;;;;2.20;0.50;;;26.10;57.20;;;;;;5086390;28;20148;-73
2023/07/18 09:42:19;;;;;;;3.45;0.98;;;26.20;56.40;;;;;;5077964;28;20060;-72
2023/07/18 09:44:48;;;;;;;2.45;0.65;;;26.30;56.40;;;;;;5062296;28;20040;-71
2023/07/18 09:47:15;;;;;;;1.48;0.80;;;26.60;56.50;;;;;;5097119;28;20247;-70
2023/07/18 09:49:45;;;;;;;1.70;0.90;;;26.90;56.30;;;;;;5094405;28;20495;-72
2023/07/18 09:52:12;;;;;;;0.90;0.60;;;27.20;56.00;;;;;;5082050;28;20542;-74
2023/07/18 09:54:39;;;;;;;1.02;0.90;;;27.50;55.70;;;;;;5084612;28;20089;-73
2023/07/18 09:57:10;;;;;;;1.90;0.70;;;27.80;55.30;;;;;;5078554;28;20465;-70
2023/07/18 09:59:39;;;;;;;1.33;0.70;;;28.00;55.00;;;;;;5073629;28;20073;-71
2023/07/18 10:02:10;;;;;;;2.47;0.43;;;28.20;54.60;;;;;;5100915;28;20032;-70
2023/07/18 10:04:37;;;;;;;0.95;0.50;;;28.40;54.30;;;;;;5081344;28;20043;-71
2023/07/18 10:07:03;;;;;;;1.88;0.75;;;28.40;54.20;;;;;;5079105;28;20036;-68
2023/07/18 10:09:32;;;;;;;2.85;0.98;;;28.40;54.10;;;;;;5075891;28;20040;-71
2023/07/18 10:12:01;;;;;;;1.65;0.70;;;28.30;53.90;;;;;;5069674;28;20238;-70
2023/07/18 10:14:30;;;;;;;2.50;1.05;;;28.20;53.80;;;;;;5081390;28;20048;-70
2023/07/18 10:17:05;;;;;;;1.50;0.80;;;28.10;53.80;;;;;;5094764;28;20039;-71
2023/07/18 10:19:47;;;;;;;1.58;0.85;;;28.00;53.90;;;;;;5088030;28;20123;-71
2023/07/18 10:22:30;;;;;;;1.58;0.90;;;27.90;53.90;;;;;;5072100;28;20043;-71
2023/07/18 10:25:04;;;;;;;1.80;0.85;;;27.80;54.10;;;;;;5077841;28;20396;-70
2023/07/18 10:27:39;;;;;;;2.47;1.02;;;27.70;54.40;;;;;;5084117;28;20487;-70
2023/07/18 10:30:08;;;;;;;2.40;0.95;;;27.60;54.10;;;;;;5090732;28;20027;-70
2023/07/18 10:32:54;;;;;;;2.80;1.35;;;27.60;54.20;;;;;;5079140;28;20038;-71
2023/07/18 10:35:26;;;;;;;3.55;1.23;;;27.50;53.90;;;;;;5078337;28;20044;-69
2023/07/18 10:37:58;;;;;;;3.35;1.00;;;27.50;54.00;;;;;;5089107;28;20036;-72
2023/07/18 10:40:39;;;;;;;1.77;0.80;;;27.50;53.80;;;;;;5075956;28;20043;-70
2023/07/18 10:43:07;;;;;;;3.60;0.80;;;27.50;53.80;;;;;;5076421;28;20697;-73
2023/07/18 10:45:48;;;;;;;2.95;0.98;;;27.50;54.00;;;;;;5079161;28;20519;-70
2023/07/18 10:48:18;;;;;;;2.65;0.90;;;27.60;54.00;;;;;;5078989;28;20040;-70
2023/07/18 10:50:46;;;;;;;2.50;1.08;;;27.70;54.00;;;;;;5079850;28;20032;-70
2023/07/18 10:53:18;;;;;;;1.85;0.90;;;27.80;53.80;;;;;;5081253;28;20437;-72
2023/07/18 10:55:45;;;;;;;7.50;1.20;;;27.90;53.70;;;;;;5081806;28;20129;-69
2023/07/18 10:58:17;;;;;;;1.95;0.57;;;28.00;53.50;;;;;;5067820;28;20035;-71
2023/07/18 11:00:47;;;;;;;3.38;0.60;;;28.20;53.20;;;;;;5081441;28;20040;-70
2023/07/18 11:03:22;;;;;;;3.78;1.48;;;28.40;53.10;;;;;;5082901;28;20036;-71
2023/07/18 11:05:52;;;;;;;3.75;0.90;;;28.40;53.00;;;;;;5082243;28;20056;-68
2023/07/18 11:08:29;;;;;;;2.85;0.80;;;28.40;53.00;;;;;;5083889;28;20524;-68
2023/07/18 11:10:57;;;;;;;4.43;1.00;;;28.40;52.70;;;;;;5077974;28;20036;-67
2023/07/18 11:13:30;;;;;;;1.60;0.88;;;28.40;52.60;;;;;;5066701;28;20046;-69
2023/07/18 11:16:05;;;;;;;2.60;0.90;;;28.30;52.50;;;;;;5088314;28;20415;-70
2023/07/18 11:18:41;;;;;;;1.40;0.80;;;28.20;52.60;;;;;;5082885;28;20028;-70
2023/07/18 11:21:16;;;;;;;3.03;1.00;;;28.10;52.50;;;;;;5068826;28;20097;-70
2023/07/18 11:23:43;;;;;;;4.28;1.23;;;28.00;52.40;;;;;;5076549;28;20415;-70
2023/07/18 11:26:18;;;;;;;2.78;0.80;;;27.90;52.40;;;;;;5081292;28;20460;-68
2023/07/18 11:28:56;;;;;;;1.40;0.70;;;27.90;52.40;;;;;;5084227;28;20028;-69
2023/07/18 11:31:31;;;;;;;1.85;0.77;;;27.90;52.40;;;;;;5082837;28;20039;-69
2023/07/18 11:34:07;;;;;;;2.85;0.77;;;27.80;52.30;;;;;;5071896;28;20089;-67
2023/07/18 11:36:40;;;;;;;2.17;1.10;;;27.70;52.40;;;;;;5078999;28;20447;-68
2023/07/18 11:39:21;;;;;;;5.45;1.00;;;27.60;52.50;;;;;;5075985;28;20036;-67
2023/07/18 11:41:48;;;;;;;2.33;0.77;;;27.60;52.60;;;;;;5076959;28;20036;-69
2023/07/18 11:44:24;;;;;;;2.08;0.95;;;27.60;52.70;;;;;;5071285;28;20510;-70
2023/07/18 11:46:59;;;;;;;1.65;1.10;;;27.70;52.50;;;;;;5077309;28;20031;-70
2023/07/18 11:49:35;;;;;;;2.70;0.82;;;27.70;52.60;;;;;;5079122;28;20032;-71
2023/07/18 11:52:03;;;;;;;0.93;0.73;;;27.80;52.40;;;;;;5079879;28;20039;-68
2023/07/18 11:54:30;;;;;;;2.40;0.73;;;27.90;52.40;;;;;;5088144;28;20038;-70
2023/07/18 11:56:56;;;;;;;5.03;1.10;;;28.00;52.40;;;;;;5079270;28;20162;-67
2023/07/18 11:59:22;;;;;;;2.58;0.88;;;28.10;52.30;;;;;;5082061;28;20485;-75
2023/07/18 12:01:48;;;;;;;2.15;1.02;;;28.30;52.30;;;;;;5079609;28;20494;-67
2023/07/18 12:04:14;;;;;;;1.60;0.80;;;28.40;52.00;;;;;;5072533;28;20443;-67
2023/07/18 12:06:41;;;;;;;2.22;1.15;;;28.50;51.90;;;;;;5079767;28;20040;-69
2023/07/18 12:09:07;;;;;;;3.40;0.75;;;28.70;52.00;;;;;;5079531;28;20066;-69
2023/07/18 12:11:33;;;;;;;1.73;0.70;;;28.80;51.80;;;;;;5085196;28;20024;-70
2023/07/18 12:14:02;;;;;;;1.63;0.70;;;29.00;51.80;;;;;;5078695;28;20481;-67
2023/07/18 12:16:28;;;;;;;2.45;0.90;;;29.00;51.60;;;;;;5075240;28;20039;-70
2023/07/18 12:18:54;;;;;;;4.10;1.00;;;29.10;51.50;;;;;;5075382;28;20028;-69
2023/07/18 12:21:21;;;;;;;1.67;0.85;;;29.10;51.10;;;;;;5087490;28;20042;-69
2023/07/18 12:23:52;;;;;;;2.05;0.82;;;29.20;51.00;;;;;;5087528;28;20105;-68
2023/07/18 12:26:18;;;;;;;1.88;0.80;;;29.40;50.90;;;;;;5092859;28;20048;-70
2023/07/18 12:28:44;;;;;;;2.47;1.10;;;29.60;50.60;;;;;;5082337;28;20054;-70
2023/07/18 12:31:11;;;;;;;2.38;0.75;;;29.70;50.40;;;;;;5075217;28;20028;-69
2023/07/18 12:33:38;;;;;;;1.63;0.75;;;29.80;50.20;;;;;;5076935;28;20230;-70
2023/07/18 12:36:05;;;;;;;2.20;1.10;;;29.90;50.20;;;;;;5077763;28;20040;-68
2023/07/18 12:38:31;;;;;;;2.97;1.33;;;29.90;50.20;;;;;;5081129;28;20032;-69
2023/07/18 12:40:57;;;;;;;2.33;0.85;;;29.90;50.10;;;;;;5077978;28;20351;-68
2023/07/18 12:43:26;;;;;;;3.88;1.08;;;29.90;50.10;;;;;;5078834;28;20751;-68
2023/07/18 12:45:53;;;;;;;1.83;0.77;;;29.90;50.00;;;;;;5088265;28;20511;-70
2023/07/18 12:48:22;;;;;;;1.25;0.65;;;30.00;50.00;;;;;;5080995;28;20118;-68
2023/07/18 12:50:48;;;;;;;2.20;0.90;;;30.00;49.90;;;;;;5078382;28;20032;-67
2023/07/18 12:53:14;;;;;;;1.85;0.60;;;30.00;49.90;;;;;;5088876;28;20036;-68
2023/07/18 12:55:52;;;;;;;0.77;0.57;;;30.00;49.80;;;;;;5094435;28;20036;-73